createdAt,value
2017-06-08T00:00:15.733Z,69
2017-06-08T00:01:18.505Z,68.8
2017-06-08T00:02:21.276Z,69
2017-06-08T00:03:23.660Z,69
2017-06-08T00:04:27.381Z,69
2017-06-08T00:05:29.265Z,68.8
2017-06-08T00:06:32.150Z,68.9
2017-06-08T00:07:34.544Z,68.9
2017-06-08T00:08:37.436Z,68.9
2017-06-08T00:09:40.454Z,69
2017-06-08T00:10:42.839Z,69
2017-06-08T00:11:45.729Z,68.7
2017-06-08T00:12:48.070Z,68.8
2017-06-08T00:13:50.963Z,68.8
2017-06-08T00:15:56.562Z,68.7
2017-06-08T00:18:01.861Z,69
2017-06-08T00:20:07.815Z,69
2017-06-08T00:21:10.335Z,69.1
2017-06-08T00:22:12.722Z,68.9
2017-06-08T00:23:15.484Z,68.6
2017-06-08T00:25:20.787Z,68.7
2017-06-08T00:26:23.972Z,68.9
2017-06-08T00:27:26.351Z,68.8
2017-06-08T00:28:29.246Z,68.5
2017-06-08T00:29:31.716Z,68.8
2017-06-08T00:31:37.771Z,68.6
2017-06-08T00:33:42.952Z,68.8
2017-06-08T00:34:45.606Z,68.5
2017-06-08T00:35:48.376Z,68.6
2017-06-08T00:36:51.009Z,68.6
2017-06-08T00:37:53.780Z,68.6
2017-06-08T00:38:56.669Z,68.6
2017-06-08T00:39:59.052Z,68.5
2017-06-08T00:41:01.816Z,68.4
2017-06-08T00:42:05.002Z,68.5
2017-06-08T00:43:07.143Z,68.3
2017-06-08T00:44:09.912Z,68.2
2017-06-08T00:45:12.798Z,68.3
2017-06-08T00:46:15.568Z,68.3
2017-06-08T00:47:18.760Z,68.4
2017-06-08T00:49:23.552Z,68.2
2017-06-08T00:50:26.438Z,68.3
2017-06-08T00:51:28.890Z,68.2
2017-06-08T00:53:34.831Z,68.1
2017-06-08T00:54:37.227Z,68.2
2017-06-08T00:55:40.118Z,68
2017-06-08T00:56:42.888Z,67.9
2017-06-08T00:58:48.506Z,67.9
2017-06-08T00:59:50.893Z,68.1
2017-06-08T01:01:56.191Z,67.8
2017-06-08T01:04:02.248Z,68.2
2017-06-08T01:05:04.640Z,68.7
2017-06-08T01:06:07.027Z,68.7
2017-06-08T01:07:09.916Z,68.1
2017-06-08T01:08:12.802Z,68.2
2017-06-08T01:09:15.510Z,68.2
2017-06-08T01:10:17.928Z,68.4
2017-06-08T01:11:20.579Z,68.5
2017-06-08T01:12:23.466Z,68.4
2017-06-08T01:14:29.064Z,68.4
2017-06-08T01:15:31.453Z,68.6
2017-06-08T01:16:34.350Z,68.9
2017-06-08T01:17:37.233Z,68.9
2017-06-08T01:18:39.500Z,69
2017-06-08T01:19:42.692Z,69.1
2017-06-08T01:20:45.082Z,69.1
2017-06-08T01:21:47.861Z,69
2017-06-08T01:22:50.756Z,69.1
2017-06-08T01:23:53.144Z,69
2017-06-08T01:24:56.283Z,69
2017-06-08T01:25:58.664Z,69.4
2017-06-08T01:27:01.561Z,69.4
2017-06-08T01:28:04.444Z,69.5
2017-06-08T01:29:06.836Z,69.4
2017-06-08T01:31:12.436Z,69.6
2017-06-08T01:32:14.825Z,69.8
2017-06-08T01:33:17.783Z,69.7
2017-06-08T01:34:20.672Z,69.7
2017-06-08T01:35:23.063Z,69.8
2017-06-08T01:36:26.198Z,70
2017-06-08T01:37:28.584Z,70
2017-06-08T01:38:31.472Z,70.1
2017-06-08T01:39:33.863Z,70.2
2017-06-08T01:40:37.322Z,70.4
2017-06-08T01:41:39.461Z,70.3
2017-06-08T01:43:44.636Z,70.3
2017-06-08T01:44:47.517Z,70.6
2017-06-08T01:45:50.401Z,70.6
2017-06-08T01:47:55.882Z,70.7
2017-06-08T01:48:58.270Z,70.6
2017-06-08T01:50:01.038Z,70.8
2017-06-08T01:51:03.810Z,71.1
2017-06-08T01:52:06.707Z,71.3
2017-06-08T01:53:09.776Z,71.2
2017-06-08T01:54:12.166Z,71.2
2017-06-08T01:55:14.549Z,71.2
2017-06-08T01:56:17.439Z,71.3
2017-06-08T01:57:20.324Z,71
2017-06-08T01:58:22.956Z,71
2017-06-08T02:00:28.133Z,71
2017-06-08T02:01:31.019Z,70.9
2017-06-08T02:02:33.402Z,71
2017-06-08T02:03:36.593Z,71
2017-06-08T02:05:41.824Z,70.9
2017-06-08T02:06:44.213Z,71.1
2017-06-08T02:08:50.268Z,70.9
2017-06-08T02:09:52.649Z,71
2017-06-08T02:10:55.040Z,71
2017-06-08T02:13:00.857Z,70.9
2017-06-08T02:14:03.489Z,71
2017-06-08T02:15:05.876Z,71
2017-06-08T02:18:13.965Z,70.9
2017-06-08T02:20:20.012Z,70.8
2017-06-08T02:21:23.040Z,71
2017-06-08T02:22:24.921Z,70.8
2017-06-08T02:23:27.811Z,70.7
2017-06-08T02:24:30.193Z,70.7
2017-06-08T02:26:36.249Z,70.5
2017-06-08T02:27:39.216Z,71
2017-06-08T02:30:46.411Z,70.8
2017-06-08T02:32:52.395Z,71
2017-06-08T02:33:54.786Z,71
2017-06-08T02:34:57.247Z,71
2017-06-08T02:36:00.134Z,71.2
2017-06-08T02:38:05.760Z,71.1
2017-06-08T02:39:08.140Z,71.1
2017-06-08T02:40:11.028Z,70.9
2017-06-08T02:41:13.914Z,71.1
2017-06-08T02:43:19.461Z,70.9
2017-06-08T02:46:27.165Z,70.9
2017-06-08T02:47:30.055Z,70.9
2017-06-08T02:48:32.692Z,71
2017-06-08T02:49:35.578Z,71
2017-06-08T02:50:37.963Z,71
2017-06-08T02:51:40.845Z,70.8
2017-06-08T02:52:43.614Z,70.9
2017-06-08T02:53:46.630Z,71.1
2017-06-08T02:54:49.012Z,71
2017-06-08T02:55:51.391Z,70.8
2017-06-08T02:56:54.279Z,70.9
2017-06-08T02:57:57.047Z,70.9
2017-06-08T03:00:02.600Z,70.8
2017-06-08T03:02:07.656Z,70.6
2017-06-08T03:03:10.423Z,70.7
2017-06-08T03:04:13.196Z,70.7
2017-06-08T03:06:18.674Z,70.7
2017-06-08T03:11:32.493Z,70.5
2017-06-08T03:12:34.875Z,70.5
2017-06-08T03:14:40.166Z,70.5
2017-06-08T03:15:42.936Z,70.7
2017-06-08T03:16:46.076Z,70.7
2017-06-08T03:19:53.655Z,70.7
2017-06-08T03:21:59.705Z,70.7
2017-06-08T03:23:02.088Z,70.9
2017-06-08T03:24:04.471Z,70.7
2017-06-08T03:25:07.234Z,70.6
2017-06-08T03:26:10.125Z,70.7
2017-06-08T03:27:13.262Z,70.6
2017-06-08T03:28:15.410Z,70.5
2017-06-08T03:30:20.585Z,70.9
2017-06-08T03:31:23.472Z,70.8
2017-06-08T03:32:26.611Z,70.9
2017-06-08T03:33:28.883Z,70.7
2017-06-08T03:35:34.687Z,70.7
2017-06-08T03:36:37.070Z,70.7
2017-06-08T03:37:40.212Z,70.5
2017-06-08T03:38:42.593Z,70.6
2017-06-08T03:39:45.483Z,70.5
2017-06-08T03:40:47.746Z,70.3
2017-06-08T03:41:50.638Z,70.7
2017-06-08T03:42:53.702Z,70.5
2017-06-08T03:43:56.080Z,70.3
2017-06-08T03:44:58.842Z,70.4
2017-06-08T03:46:01.726Z,70.5
2017-06-08T03:48:07.273Z,70.4
2017-06-08T03:49:09.662Z,70.6
2017-06-08T03:50:12.547Z,70.2
2017-06-08T03:51:14.930Z,70.1
2017-06-08T03:52:17.822Z,69.8
2017-06-08T03:55:26.284Z,69.5
2017-06-08T03:56:28.668Z,69.5
2017-06-08T03:57:31.557Z,69.4
2017-06-08T03:58:33.938Z,68.8
2017-06-08T04:00:39.986Z,68.4
2017-06-08T04:01:42.364Z,68
2017-06-08T04:05:53.225Z,67.3
2017-06-08T04:06:55.669Z,67.3
2017-06-08T04:07:58.557Z,67.2
2017-06-08T04:09:01.325Z,66.4
2017-06-08T04:12:09.781Z,65.3
2017-06-08T04:13:12.176Z,64.4
2017-06-08T04:15:17.471Z,63.8
2017-06-08T04:17:23.516Z,62.6
2017-06-08T04:19:28.686Z,61.5
2017-06-08T04:21:34.020Z,60.6
2017-06-08T04:23:40.124Z,60
2017-06-08T04:24:42.512Z,59.4
2017-06-08T04:26:47.685Z,59.4
2017-06-08T04:28:53.616Z,59.4
2017-06-08T04:29:55.993Z,58.6
2017-06-08T04:30:58.879Z,59
2017-06-08T04:32:01.658Z,58.8
2017-06-08T04:33:04.303Z,58.5
2017-06-08T04:36:12.642Z,58.8
2017-06-08T04:38:18.323Z,58.3
2017-06-08T04:39:21.787Z,57.8
2017-06-08T04:40:23.931Z,59.1
2017-06-08T04:41:27.080Z,58
2017-06-08T04:42:29.464Z,59.6
2017-06-08T04:43:32.350Z,58.8
2017-06-08T04:44:34.731Z,58.1
2017-06-08T04:46:40.781Z,57.6
2017-06-08T04:47:43.159Z,56.9
2017-06-08T04:50:51.361Z,57.2
2017-06-08T04:51:54.387Z,57.8
2017-06-08T04:55:02.593Z,57.5
2017-06-08T04:58:11.043Z,56.8
2017-06-08T04:59:13.687Z,57
2017-06-08T05:00:16.574Z,56.8
2017-06-08T05:01:19.463Z,56.7
2017-06-08T05:02:22.353Z,56.1
2017-06-08T05:03:24.990Z,56.8
2017-06-08T05:04:27.873Z,56.1
2017-06-08T05:05:30.549Z,55.5
2017-06-08T05:06:33.412Z,55.5
2017-06-08T05:07:36.079Z,54.7
2017-06-08T05:08:39.213Z,54.7
2017-06-08T05:09:41.773Z,54.6
2017-06-08T05:10:44.072Z,54.1
2017-06-08T05:11:47.207Z,53.9
2017-06-08T05:12:49.761Z,53.7
2017-06-08T05:13:53.206Z,54.1
2017-06-08T05:14:55.748Z,53.9
2017-06-08T05:15:58.637Z,53.5
2017-06-08T05:17:01.020Z,53
2017-06-08T05:18:03.906Z,53.6
2017-06-08T05:19:07.043Z,53.7
2017-06-08T05:20:09.434Z,52.7
2017-06-08T05:22:15.113Z,53
2017-06-08T05:24:21.095Z,53.5
2017-06-08T05:25:23.480Z,53.2
2017-06-08T05:26:26.372Z,52.9
2017-06-08T05:28:32.183Z,53.8
2017-06-08T05:29:35.319Z,54.5
2017-06-08T05:31:40.614Z,55.2
2017-06-08T05:32:43.499Z,54.4
2017-06-08T05:33:45.768Z,55
2017-06-08T05:35:51.750Z,54.8
2017-06-08T05:40:02.754Z,54.3
2017-06-08T05:42:09.391Z,55.2
2017-06-08T05:43:11.272Z,54.6
2017-06-08T05:44:14.156Z,54.1
2017-06-08T05:45:16.963Z,54.4
2017-06-08T05:47:23.060Z,54.1
2017-06-08T05:48:25.446Z,54.7
2017-06-08T05:49:28.337Z,54.6
2017-06-08T05:51:33.644Z,54.7
2017-06-08T05:52:36.778Z,54.7
2017-06-08T05:54:42.070Z,54.1
2017-06-08T05:55:44.834Z,54.5
2017-06-08T05:59:56.714Z,53.7
2017-06-08T06:00:59.095Z,53.2
2017-06-08T06:02:02.023Z,54.2
2017-06-08T06:03:04.675Z,53.5
2017-06-08T06:04:07.442Z,52.7
2017-06-08T06:06:13.497Z,52.3
2017-06-08T06:07:15.883Z,52.5
2017-06-08T06:08:18.652Z,51.8
2017-06-08T06:12:30.406Z,51.6
2017-06-08T06:13:32.784Z,51.6
2017-06-08T06:14:35.672Z,51.7
2017-06-08T06:16:41.474Z,52.6
2017-06-08T06:17:44.157Z,52.3
2017-06-08T06:18:47.046Z,52.1
2017-06-08T06:19:49.939Z,52.2
2017-06-08T06:20:52.321Z,52
2017-06-08T06:21:55.209Z,52.2
2017-06-08T06:22:58.348Z,51.4
2017-06-08T06:24:01.112Z,51.5
2017-06-08T06:26:06.409Z,51.9
2017-06-08T06:28:12.507Z,52
2017-06-08T06:29:14.888Z,51.5
2017-06-08T06:30:17.781Z,50.2
2017-06-08T06:31:20.672Z,50.9
2017-06-08T06:32:23.556Z,51.4
2017-06-08T06:33:26.692Z,51.7
2017-06-08T06:34:28.963Z,51.1
2017-06-08T06:35:32.378Z,50.5
2017-06-08T06:36:34.763Z,50.5
2017-06-08T06:37:37.652Z,51
2017-06-08T06:38:41.364Z,50.7
2017-06-08T06:39:43.248Z,50.7
2017-06-08T06:40:46.142Z,50.8
2017-06-08T06:41:49.029Z,50.5
2017-06-08T06:42:51.795Z,50.7
2017-06-08T06:46:00.392Z,50.1
2017-06-08T06:47:03.278Z,50.5
2017-06-08T06:48:06.046Z,51
2017-06-08T06:49:08.937Z,50.1
2017-06-08T06:50:11.705Z,49.9
2017-06-08T06:51:14.846Z,50.4
2017-06-08T06:53:20.145Z,50.1
2017-06-08T06:54:22.915Z,49.5
2017-06-08T06:56:29.013Z,49.7
2017-06-08T06:57:31.393Z,49.2
2017-06-08T06:58:34.276Z,49.7
2017-06-08T06:59:37.166Z,49.1
2017-06-08T07:01:43.220Z,49.6
2017-06-08T07:02:45.604Z,50.1
2017-06-08T07:03:48.370Z,50.7
2017-06-08T07:04:51.255Z,51
2017-06-08T07:05:54.023Z,50.3
2017-06-08T07:06:57.089Z,50.6
2017-06-08T07:07:59.976Z,51.2
2017-06-08T07:09:02.362Z,50.7
2017-06-08T07:10:05.255Z,50
2017-06-08T07:11:08.034Z,50.4
2017-06-08T07:12:11.227Z,50.3
2017-06-08T07:14:16.909Z,50.2
2017-06-08T07:15:19.793Z,49.2
2017-06-08T07:16:22.178Z,49.8
2017-06-08T07:17:25.315Z,49.9
2017-06-08T07:18:28.204Z,50
2017-06-08T07:20:33.502Z,50.4
2017-06-08T07:24:45.378Z,49.8
2017-06-08T07:25:47.771Z,49.2
2017-06-08T07:27:53.571Z,49.2
2017-06-08T07:29:59.627Z,49.7
2017-06-08T07:31:02.014Z,49
2017-06-08T07:32:04.907Z,49.7
2017-06-08T07:33:07.790Z,49.6
2017-06-08T07:34:10.679Z,49.5
2017-06-08T07:35:13.818Z,49.5
2017-06-08T07:36:16.086Z,49.4
2017-06-08T07:37:18.977Z,49.6
2017-06-08T07:38:21.858Z,49.7
2017-06-08T07:39:24.747Z,48
2017-06-08T07:40:27.892Z,47.5
2017-06-08T07:41:30.283Z,47.1
2017-06-08T07:42:33.245Z,47.2
2017-06-08T07:43:36.009Z,47.3
2017-06-08T07:44:38.900Z,46.7
2017-06-08T07:45:42.085Z,47
2017-06-08T07:46:44.467Z,46.5
2017-06-08T07:48:50.144Z,45.9
2017-06-08T07:49:52.912Z,45.3
2017-06-08T07:51:58.828Z,45.4
2017-06-08T07:53:01.718Z,44.7
2017-06-08T07:55:07.103Z,44.4
2017-06-08T07:56:09.991Z,44
2017-06-08T07:57:13.011Z,44.4
2017-06-08T07:59:18.814Z,44.7
2017-06-08T08:01:24.613Z,44.6
2017-06-08T08:03:30.039Z,45.1
2017-06-08T08:05:35.845Z,44.1
2017-06-08T08:06:38.750Z,44.5
2017-06-08T08:07:41.643Z,44
2017-06-08T08:08:44.661Z,43.9
2017-06-08T08:09:47.547Z,43.5
2017-06-08T08:10:49.928Z,43.3
2017-06-08T08:11:53.201Z,43
2017-06-08T08:12:56.089Z,42.5
2017-06-08T08:13:59.226Z,42.1
2017-06-08T08:15:01.606Z,42.1
2017-06-08T08:18:10.355Z,42.5
2017-06-08T08:19:13.546Z,42.2
2017-06-08T08:20:15.809Z,42.3
2017-06-08T08:21:18.577Z,43.3
2017-06-08T08:22:21.462Z,42.9
2017-06-08T08:23:24.351Z,42.6
2017-06-08T08:24:27.539Z,42.9
2017-06-08T08:25:30.428Z,42.5
2017-06-08T08:26:33.315Z,42.5
2017-06-08T08:27:36.211Z,42.6
2017-06-08T08:28:39.108Z,43.3
2017-06-08T08:29:42.064Z,43.3
2017-06-08T08:30:44.447Z,43.1
2017-06-08T08:31:47.374Z,42.9
2017-06-08T08:32:50.328Z,43
2017-06-08T08:33:53.220Z,43.4
2017-06-08T08:34:56.288Z,44.4
2017-06-08T08:35:58.937Z,43.5
2017-06-08T08:38:04.617Z,43.6
2017-06-08T08:39:07.505Z,43.4
2017-06-08T08:40:10.641Z,43.1
2017-06-08T08:41:13.531Z,43.2
2017-06-08T08:42:16.421Z,42.4
2017-06-08T08:43:19.185Z,42.8
2017-06-08T08:44:21.947Z,43.1
2017-06-08T08:45:25.141Z,43.1
2017-06-08T08:49:36.266Z,41.2
2017-06-08T08:50:39.405Z,41.8
2017-06-08T08:52:45.200Z,42.5
2017-06-08T08:53:47.972Z,42.2
2017-06-08T08:54:50.860Z,42.8
2017-06-08T08:55:54.000Z,41.6
2017-06-08T08:56:56.765Z,42.3
2017-06-08T08:59:02.450Z,41.6
2017-06-08T09:00:05.338Z,41.8
2017-06-08T09:01:08.406Z,42.1
2017-06-08T09:02:11.428Z,42.7
2017-06-08T09:03:14.085Z,42.5
2017-06-08T09:04:16.983Z,43
2017-06-08T09:05:19.870Z,43.1
2017-06-08T09:08:28.746Z,40.8
2017-06-08T09:09:31.516Z,40.3
2017-06-08T09:10:34.402Z,40.6
2017-06-08T09:14:46.293Z,40.3
2017-06-08T09:15:49.183Z,41
2017-06-08T09:17:54.986Z,40.7
2017-06-08T09:18:57.757Z,41.1
2017-06-08T09:20:00.779Z,39.7
2017-06-08T09:21:03.754Z,39.7
2017-06-08T09:22:06.639Z,39.8
2017-06-08T09:23:09.404Z,39.3
2017-06-08T09:24:12.170Z,39.3
2017-06-08T09:26:18.229Z,39.2
2017-06-08T09:27:21.003Z,38.6
2017-06-08T09:29:26.680Z,39.2
2017-06-08T09:31:32.993Z,39.4
2017-06-08T09:32:35.882Z,39.3
2017-06-08T09:33:38.771Z,39
2017-06-08T09:34:41.652Z,35.6
2017-06-08T09:35:44.540Z,35.9
2017-06-08T09:36:47.559Z,34.2
2017-06-08T09:37:50.332Z,32.4
2017-06-08T09:38:53.219Z,33.7
2017-06-08T09:39:56.487Z,33.5
2017-06-08T09:40:59.255Z,34.9
2017-06-08T09:42:02.394Z,34.7
2017-06-08T09:43:05.290Z,36.5
2017-06-08T09:46:13.997Z,36.3
2017-06-08T09:50:25.873Z,37
2017-06-08T09:51:28.760Z,36.7
2017-06-08T09:53:34.565Z,35.9
2017-06-08T09:54:37.451Z,35
2017-06-08T09:55:40.643Z,35.8
2017-06-08T09:56:43.539Z,35.8
2017-06-08T09:57:46.431Z,34.5
2017-06-08T09:58:49.323Z,36.5
2017-06-08T09:59:52.212Z,36.2
2017-06-08T10:00:55.404Z,36.1
2017-06-08T10:01:58.287Z,36
2017-06-08T10:03:01.178Z,36.3
2017-06-08T10:04:04.066Z,36.3
2017-06-08T10:06:10.626Z,35.7
2017-06-08T10:07:13.014Z,36.3
2017-06-08T10:08:16.292Z,36.2
2017-06-08T10:09:19.059Z,37.2
2017-06-08T10:10:21.948Z,37.6
2017-06-08T10:11:25.313Z,37.7
2017-06-08T10:12:28.197Z,37.9
2017-06-08T10:13:31.081Z,38.3
2017-06-08T10:15:36.887Z,38.9
2017-06-08T10:16:40.027Z,38.5
2017-06-08T10:17:42.913Z,37.7
2017-06-08T10:18:45.800Z,37.8
2017-06-08T10:19:48.683Z,37.3
2017-06-08T10:21:55.282Z,36.7
2017-06-08T10:24:00.579Z,36.6
2017-06-08T10:25:03.347Z,36.2
2017-06-08T10:26:06.733Z,36.6
2017-06-08T10:27:09.873Z,37
2017-06-08T10:28:12.256Z,37.2
2017-06-08T10:29:15.717Z,37.1
2017-06-08T10:30:18.104Z,35.8
2017-06-08T10:31:21.494Z,36.8
2017-06-08T10:35:33.247Z,37.6
2017-06-08T10:36:36.018Z,37
2017-06-08T10:37:38.906Z,37.7
2017-06-08T10:38:41.676Z,37.3
2017-06-08T10:40:47.727Z,37.4
2017-06-08T10:41:50.614Z,37.3
2017-06-08T10:42:53.506Z,38.7
2017-06-08T10:43:56.396Z,38
2017-06-08T10:44:59.318Z,38.6
2017-06-08T10:46:02.455Z,38
2017-06-08T10:47:05.221Z,38.1
2017-06-08T10:49:10.939Z,37.1
2017-06-08T10:50:13.827Z,37.1
2017-06-08T10:51:16.961Z,37.9
2017-06-08T10:53:22.763Z,38.7
2017-06-08T10:54:25.646Z,36.9
2017-06-08T10:55:28.103Z,36.1
2017-06-08T10:56:31.793Z,37.1
2017-06-08T10:58:37.086Z,37.2
2017-06-08T10:59:39.970Z,36.4
2017-06-08T11:00:42.861Z,35.4
2017-06-08T11:01:46.479Z,34.5
2017-06-08T11:03:51.810Z,34.2
2017-06-08T11:04:54.591Z,34.6
2017-06-08T11:05:57.487Z,33.7
2017-06-08T11:09:06.470Z,35.3
2017-06-08T11:10:09.239Z,36.6
2017-06-08T11:11:12.008Z,36.1
2017-06-08T11:13:17.805Z,35.6
2017-06-08T11:14:20.975Z,36.3
2017-06-08T11:16:26.778Z,37.2
2017-06-08T11:17:29.669Z,36.8
2017-06-08T11:18:32.560Z,36
2017-06-08T11:19:35.700Z,36.2
2017-06-08T11:20:38.082Z,36.2
2017-06-08T11:22:44.380Z,36.2
2017-06-08T11:23:46.836Z,35.7
2017-06-08T11:25:53.428Z,36.4
2017-06-08T11:29:01.634Z,35.7
2017-06-08T11:30:04.525Z,36.1
2017-06-08T11:31:07.544Z,35.4
2017-06-08T11:32:10.430Z,36.9
2017-06-08T11:33:13.320Z,35.2
2017-06-08T11:36:22.333Z,35.9
2017-06-08T11:38:28.137Z,34.8
2017-06-08T11:39:31.029Z,35.5
2017-06-08T11:40:33.916Z,35.1
2017-06-08T11:42:40.021Z,35.9
2017-06-08T11:43:42.442Z,34.6
2017-06-08T11:45:48.742Z,35
2017-06-08T11:47:54.729Z,35.3
2017-06-08T11:48:57.114Z,34.6
2017-06-08T11:50:00.004Z,34.8
2017-06-08T11:51:03.395Z,35.6
2017-06-08T11:52:06.165Z,35.7
2017-06-08T11:53:09.892Z,35.4
2017-06-08T11:54:11.777Z,35.2
2017-06-08T11:55:14.606Z,34.7
2017-06-08T11:56:17.996Z,34.6
2017-06-08T11:57:20.880Z,35
2017-06-08T11:58:24.022Z,35.2
2017-06-08T11:59:26.405Z,35.2
2017-06-08T12:00:29.328Z,34.6
2017-06-08T12:01:32.215Z,34.5
2017-06-08T12:02:35.107Z,35.1
2017-06-08T12:03:38.745Z,33.8
2017-06-08T12:05:43.922Z,34.3
2017-06-08T12:06:46.812Z,33.9
2017-06-08T12:08:53.364Z,34.4
2017-06-08T12:10:58.656Z,34.8
2017-06-08T12:12:01.427Z,34.8
2017-06-08T12:14:08.028Z,34
2017-06-08T12:15:10.297Z,34.8
2017-06-08T12:16:13.184Z,35.2
2017-06-08T12:18:18.980Z,35.7
2017-06-08T12:19:22.505Z,35.3
2017-06-08T12:20:24.893Z,34.8
2017-06-08T12:21:27.814Z,35.5
2017-06-08T12:22:30.704Z,35.5
2017-06-08T12:25:40.224Z,35.8
2017-06-08T12:27:45.527Z,35.5
2017-06-08T12:28:48.420Z,36.2
2017-06-08T12:30:54.357Z,35.9
2017-06-08T12:33:00.167Z,35.6
2017-06-08T12:35:05.964Z,36.6
2017-06-08T12:37:11.892Z,37.2
2017-06-08T12:38:14.776Z,37.3
2017-06-08T12:40:20.465Z,36.4
2017-06-08T12:42:26.663Z,36.5
2017-06-08T12:43:29.431Z,35.1
2017-06-08T12:44:32.324Z,35.1
2017-06-08T12:45:35.217Z,35.5
2017-06-08T12:46:38.109Z,36.1
2017-06-08T12:48:44.158Z,35.6
2017-06-08T12:49:47.049Z,36
2017-06-08T12:50:49.933Z,36.6
2017-06-08T12:51:52.818Z,36.6
2017-06-08T12:55:01.832Z,35.4
2017-06-08T12:56:04.225Z,35.8
2017-06-08T12:57:07.501Z,35.6
2017-06-08T12:58:10.269Z,34.6
2017-06-08T13:00:16.369Z,35.9
2017-06-08T13:01:19.256Z,36
2017-06-08T13:03:24.944Z,35.2
2017-06-08T13:05:31.045Z,34.8
2017-06-08T13:06:33.429Z,35.5
2017-06-08T13:08:39.610Z,36.1
2017-06-08T13:09:42.498Z,34.9
2017-06-08T13:10:45.641Z,35.7
2017-06-08T13:11:48.025Z,36
2017-06-08T13:12:50.913Z,35.6
2017-06-08T13:13:53.870Z,35.5
2017-06-08T13:14:56.760Z,37
2017-06-08T13:15:59.899Z,35.3
2017-06-08T13:17:02.789Z,35.9
2017-06-08T13:18:05.673Z,36.3
2017-06-08T13:19:08.440Z,36.4
2017-06-08T13:20:11.332Z,35.9
2017-06-08T13:21:14.522Z,36
2017-06-08T13:24:23.240Z,35.9
2017-06-08T13:25:26.127Z,36.6
2017-06-08T13:28:35.089Z,35.7
2017-06-08T13:29:37.355Z,36.2
2017-06-08T13:31:43.657Z,35.5
2017-06-08T13:32:47.123Z,36.1
2017-06-08T13:33:49.306Z,36.1
2017-06-08T13:34:52.191Z,35.7
2017-06-08T13:35:55.072Z,36.2
2017-06-08T13:36:57.971Z,36.4
2017-06-08T13:40:06.989Z,36.6
2017-06-08T13:41:09.374Z,37.2
2017-06-08T13:42:12.265Z,37.3
2017-06-08T13:44:18.065Z,37.2
2017-06-08T13:47:27.032Z,38
2017-06-08T13:48:29.801Z,38.4
2017-06-08T13:49:32.570Z,38.2
2017-06-08T13:50:35.462Z,37.4
2017-06-08T13:53:44.425Z,37.7
2017-06-08T13:56:53.132Z,37.9
2017-06-08T13:57:56.020Z,38.5
2017-06-08T13:58:59.094Z,37.8
2017-06-08T14:00:01.990Z,37.8
2017-06-08T14:01:04.379Z,37.8
2017-06-08T14:02:07.766Z,37.5
2017-06-08T14:03:10.531Z,37.8
2017-06-08T14:04:13.674Z,38.4
2017-06-08T14:05:16.059Z,38
2017-06-08T14:06:18.949Z,37.4
2017-06-08T14:07:21.835Z,37.5
2017-06-08T14:08:24.727Z,38
2017-06-08T14:11:33.695Z,38.3
2017-06-08T14:12:36.581Z,38.3
2017-06-08T14:13:39.468Z,39.1
2017-06-08T14:14:42.349Z,39.6
2017-06-08T14:17:51.314Z,38.8
2017-06-08T14:19:56.487Z,39
2017-06-08T14:20:59.371Z,39
2017-06-08T14:22:02.259Z,38.8
2017-06-08T14:23:05.415Z,39.3
2017-06-08T14:24:08.299Z,39.6
2017-06-08T14:25:11.187Z,40
2017-06-08T14:26:14.074Z,40.4
2017-06-08T14:27:16.958Z,39.3
2017-06-08T14:29:22.893Z,40.1
2017-06-08T14:30:25.781Z,39.6
2017-06-08T14:32:31.574Z,40.1
2017-06-08T14:34:37.676Z,38.9
2017-06-08T14:36:42.980Z,39.2
2017-06-08T14:37:45.870Z,38.9
2017-06-08T14:38:48.633Z,38.3
2017-06-08T14:41:57.473Z,39.7
2017-06-08T14:43:00.358Z,39.9
2017-06-08T14:49:18.082Z,40.5
2017-06-08T14:52:26.288Z,40.2
2017-06-08T14:53:29.055Z,40.7
2017-06-08T14:55:35.153Z,40.3
2017-06-08T14:56:38.039Z,40.8
2017-06-08T14:57:40.805Z,41.4
2017-06-08T14:59:46.490Z,40.8
2017-06-08T15:00:49.627Z,40.6
2017-06-08T15:01:52.013Z,41.2
2017-06-08T15:02:54.900Z,41.3
2017-06-08T15:05:00.701Z,41.6
2017-06-08T15:08:09.663Z,41.5
2017-06-08T15:10:15.466Z,40.6
2017-06-08T15:11:18.354Z,41.1
2017-06-08T15:12:21.246Z,41.4
2017-06-08T15:13:24.268Z,41.3
2017-06-08T15:14:26.651Z,41.1
2017-06-08T15:16:32.449Z,41.8
2017-06-08T15:17:35.334Z,42.1
2017-06-08T15:18:38.472Z,41.4
2017-06-08T15:19:41.238Z,41.4
2017-06-08T15:21:46.915Z,41.3
2017-06-08T15:22:49.854Z,41.2
2017-06-08T15:23:52.880Z,42
2017-06-08T15:25:58.558Z,41.1
2017-06-08T15:27:01.443Z,41
2017-06-08T15:28:04.341Z,41.5
2017-06-08T15:29:07.484Z,41.5
2017-06-08T15:30:10.367Z,40.7
2017-06-08T15:31:13.136Z,41.3
2017-06-08T15:32:16.025Z,41.5
2017-06-08T15:34:22.075Z,40.9
2017-06-08T15:35:24.462Z,41.5
2017-06-08T15:36:27.350Z,41.5
2017-06-08T15:40:39.225Z,42.4
2017-06-08T15:42:45.031Z,42.2
2017-06-08T15:44:50.710Z,43.2
2017-06-08T15:45:53.901Z,42.8
2017-06-08T15:46:56.283Z,42.7
2017-06-08T15:47:59.053Z,42.1
2017-06-08T15:49:01.942Z,42.1
2017-06-08T15:50:04.832Z,42.1
2017-06-08T15:52:11.321Z,43.1
2017-06-08T15:54:16.616Z,43.1
2017-06-08T15:55:19.264Z,42.5
2017-06-08T15:56:22.417Z,43
2017-06-08T15:57:25.556Z,42.9
2017-06-08T15:58:27.942Z,43.2
2017-06-08T15:59:30.824Z,43.5
2017-06-08T16:00:33.735Z,43.3
2017-06-08T16:01:36.508Z,43.5
2017-06-08T16:04:45.470Z,43.5
2017-06-08T16:06:51.268Z,44
2017-06-08T16:07:54.154Z,43.5
2017-06-08T16:08:57.046Z,42.6
2017-06-08T16:10:00.246Z,42.5
2017-06-08T16:11:02.632Z,42.3
2017-06-08T16:12:05.521Z,42.4
2017-06-08T16:13:08.407Z,42.3
2017-06-08T16:14:11.174Z,42.7
2017-06-08T16:15:14.695Z,43.3
2017-06-08T16:16:17.077Z,43.2
2017-06-08T16:18:22.882Z,42.6
2017-06-08T16:19:25.772Z,45.7
2017-06-08T16:20:28.912Z,49.6
2017-06-08T16:21:31.820Z,48.1
2017-06-08T16:22:34.087Z,45.4
2017-06-08T16:23:37.478Z,45.4
2017-06-08T16:24:40.365Z,45.4
2017-06-08T16:25:43.553Z,43.9
2017-06-08T16:27:48.853Z,44.2
2017-06-08T16:29:54.419Z,46.5
2017-06-08T16:33:03.764Z,46.2
2017-06-08T16:34:06.150Z,46.2
2017-06-08T16:35:08.913Z,46.4
2017-06-08T16:37:14.719Z,44.1
2017-06-08T16:39:20.771Z,43.9
2017-06-08T16:40:23.663Z,43.3
2017-06-08T16:41:26.556Z,43.5
2017-06-08T16:42:29.447Z,44.1
2017-06-08T16:43:32.336Z,45.1
2017-06-08T16:44:35.411Z,47
2017-06-08T16:45:37.796Z,44.2
2017-06-08T16:46:40.683Z,43.3
2017-06-08T16:47:43.952Z,44.7
2017-06-08T16:49:50.000Z,42.9
2017-06-08T16:50:52.402Z,44.6
2017-06-08T16:51:55.295Z,43.5
2017-06-08T16:52:58.063Z,44.1
2017-06-08T16:56:07.028Z,46.9
2017-06-08T16:57:09.990Z,44.2
2017-06-08T16:58:12.758Z,43.4
2017-06-08T16:59:15.648Z,43.8
2017-06-08T17:00:18.543Z,43.8
2017-06-08T17:01:21.686Z,45.4
2017-06-08T17:02:24.072Z,45
2017-06-08T17:03:26.964Z,45.4
2017-06-08T17:05:33.340Z,44.5
2017-06-08T17:08:41.793Z,44.2
2017-06-08T17:09:44.170Z,44.4
2017-06-08T17:10:47.070Z,44.1
2017-06-08T17:11:49.959Z,45.1
2017-06-08T17:12:52.874Z,45.1
2017-06-08T17:13:56.117Z,44.9
2017-06-08T17:16:01.803Z,45.6
2017-06-08T17:17:04.469Z,44.9
2017-06-08T17:18:07.473Z,45.5
2017-06-08T17:19:10.446Z,45.4
2017-06-08T17:20:13.198Z,45.2
2017-06-08T17:21:15.841Z,45.3
2017-06-08T17:22:18.899Z,45.1
2017-06-08T17:23:21.870Z,44.8
2017-06-08T17:24:25.178Z,44.7
2017-06-08T17:26:30.618Z,45.2
2017-06-08T17:27:33.279Z,45.7
2017-06-08T17:28:36.255Z,45.2
2017-06-08T17:29:39.392Z,45.4
2017-06-08T17:30:42.071Z,45.1
2017-06-08T17:31:45.054Z,45.7
2017-06-08T17:32:47.973Z,46
2017-06-08T17:33:50.588Z,45.9
2017-06-08T17:34:53.813Z,45.8
2017-06-08T17:35:56.368Z,46
2017-06-08T17:36:59.423Z,46.2
2017-06-08T17:38:02.085Z,46.2
2017-06-08T17:39:05.173Z,46.7
2017-06-08T17:41:11.257Z,46.3
2017-06-08T17:42:13.813Z,46.8
2017-06-08T17:44:19.837Z,47.8
2017-06-08T17:46:25.643Z,47.3
2017-06-08T17:47:28.305Z,47.3
2017-06-08T17:48:30.963Z,47.1
2017-06-08T17:49:33.927Z,48
2017-06-08T17:50:36.787Z,47
2017-06-08T17:51:39.772Z,47.4
2017-06-08T17:54:48.501Z,47.5
2017-06-08T17:55:51.159Z,47.9
2017-06-08T17:56:54.577Z,47.9
2017-06-08T17:57:57.046Z,47.3
2017-06-08T17:58:59.901Z,47.6
2017-06-08T18:01:05.786Z,47.3
2017-06-08T18:02:08.788Z,47.2
2017-06-08T18:03:11.338Z,47.4
2017-06-08T18:04:14.276Z,47.4
2017-06-08T18:05:17.225Z,47.5
2017-06-08T18:06:20.447Z,47.6
2017-06-08T18:07:23.208Z,48.1
2017-06-08T18:08:25.794Z,47.7
2017-06-08T18:09:28.512Z,48.3
2017-06-08T19:49:01.193Z,53.6
2017-06-08T19:51:07.163Z,53.8
2017-06-08T19:52:10.091Z,53.8
2017-06-08T19:53:12.771Z,53.8
2017-06-08T19:54:15.524Z,53.6
2017-06-08T19:55:18.399Z,53.2
2017-06-08T19:56:21.269Z,53.2
2017-06-08T19:59:30.392Z,52.8
2017-06-08T20:00:32.837Z,52.8
2017-06-08T20:02:38.704Z,53.2
2017-06-08T20:03:41.346Z,52.8
2017-06-08T20:04:44.750Z,52.7
2017-06-08T20:05:47.036Z,53
2017-06-08T20:07:52.898Z,53
2017-06-08T20:09:58.439Z,52.8
2017-06-08T20:11:01.386Z,53.1
2017-06-08T20:13:07.157Z,53.3